Maida, North Dakota
Current Conditions -  °F | °C
As of 2:15 AM on Saturday 29 Nov 2014 (Local Time) from KD55 Reporting Station
Overcast Overcast  
Wind Chill:   Ceiling: 500
Heat Index: 14°   Visibility: 7mi
Dew Point: 10°   Wind: 5mph
Humidity: 86%   Direction: 150°SSE
Pressure: 29.43"   Gusts: NA
Location:  49°N, 98.37°W
Report Text: KD55 290815Z AUTO 15004KT 7SM OVC005 M10/M12 A2943 RMK AO2
Loading
Personal Weather Stations






























Interactive Weather Map New forecast layout! Learn more

10-Day Weather Forecast

Advertisements
Track Severe Weather on mobile